Terminal Aerodrome Forecast
Issued by NWS

Home | Current Version | Previous Version | Text Only | Print | Product List | Glossary On
Versions: 1 2 3 4 5 6 7 8 9 10 11 12 13 14 15 16 17 18 19 20 21 22 23 24 25 26 27 28 29 30 31 32 33 34 35 36 37 38 39 40 41 42
000
FTUS45 KPSR 011100
TAFPHX
TAF
KPHX 011120Z 0112/0212 09003KT 5SM BR SKC
      TEMPO 0113/0116 1SM BR SKC
     FM011600 10003KT 6SM BR FEW015
     FM012000 25006KT P6SM SCT060
     FM020400 10003KT P6SM SKC=

USA.gov is the U.S. government's official web portal to all federal, state and local government web resources and services.